Time;durP1;ratioP1;P1;durP2;ratioP2;P2;SDS_P1;SDS_P2;PMS_P1;PMS_P2;Temp;Humidity;BMP_temperature;BMP_pressure;BME280_temperature;BME280_humidity;BME280_pressure;Samples;Min_cycle;Max_cycle;Signal;HPM_P1;HPM_P2
2020/12/21 00:00:11;;;;;;;18.48;9.55;;;5.90;96.20;;;;;;5086214;28;27363;-60
2020/12/21 00:02:59;;;;;;;17.33;10.13;;;6.00;96.20;;;;;;5082994;28;27323;-59
2020/12/21 00:05:44;;;;;;;20.55;10.65;;;6.00;96.20;;;;;;5085693;28;27322;-60
2020/12/21 00:08:29;;;;;;;19.58;9.85;;;6.00;96.10;;;;;;5086380;28;27484;-59
2020/12/21 00:11:13;;;;;;;18.60;9.45;;;5.90;96.10;;;;;;5085926;28;27551;-51
2020/12/21 00:13:58;;;;;;;21.02;9.57;;;5.90;96.10;;;;;;5085840;28;27417;-61
2020/12/21 00:16:50;;;;;;;22.02;10.45;;;5.90;96.00;;;;;;5085885;28;27496;-60
2020/12/21 00:19:35;;;;;;;18.33;9.77;;;5.90;96.10;;;;;;5086303;28;27473;-61
2020/12/21 00:22:19;;;;;;;17.15;9.25;;;5.90;96.00;;;;;;5085626;28;27403;-61
2020/12/21 00:25:04;;;;;;;17.77;8.80;;;5.90;96.10;;;;;;5085742;28;27316;-61
2020/12/21 00:27:48;;;;;;;19.98;9.05;;;5.90;96.10;;;;;;5086027;28;27402;-61
2020/12/21 00:30:33;;;;;;;13.88;8.50;;;5.90;96.10;;;;;;5085738;28;27371;-61
2020/12/21 00:33:17;;;;;;;17.05;8.48;;;5.90;96.10;;;;;;5085034;28;27332;-59
2020/12/21 00:36:05;;;;;;;17.23;10.05;;;5.90;96.10;;;;;;5085220;28;27386;-61
2020/12/21 00:38:51;;;;;;;13.75;7.85;;;5.90;96.40;;;;;;5085760;28;27472;-59
2020/12/21 00:41:35;;;;;;;16.95;8.32;;;5.90;96.10;;;;;;5085608;28;27418;-60
2020/12/21 00:44:19;;;;;;;14.63;7.75;;;5.90;96.00;;;;;;5085594;28;27423;-58
2020/12/21 00:47:04;;;;;;;16.48;7.90;;;5.90;96.00;;;;;;5085377;28;27979;-60
2020/12/21 00:49:49;;;;;;;17.08;7.95;;;5.90;96.00;;;;;;5082557;28;27309;-60
2020/12/21 00:52:33;;;;;;;18.08;8.23;;;5.90;96.00;;;;;;5082305;28;27386;-48
2020/12/21 00:55:18;;;;;;;14.70;7.75;;;5.90;96.00;;;;;;5085401;28;27327;-61
2020/12/21 00:58:03;;;;;;;13.15;7.45;;;5.80;96.00;;;;;;5085159;28;27390;-61
2020/12/21 01:00:47;;;;;;;11.38;7.32;;;5.80;96.00;;;;;;5084870;28;27339;-60
2020/12/21 01:03:32;;;;;;;13.40;7.20;;;5.80;95.90;;;;;;5085444;28;27374;-60
2020/12/21 01:06:16;;;;;;;13.60;7.55;;;5.80;96.30;;;;;;5085354;28;27324;-61
2020/12/21 01:09:01;;;;;;;13.43;6.63;;;5.70;95.80;;;;;;5085257;28;27989;-61
2020/12/21 01:11:45;;;;;;;12.05;6.88;;;5.70;95.90;;;;;;5085012;28;27524;-49
2020/12/21 01:14:30;;;;;;;11.35;6.68;;;5.60;95.90;;;;;;5084879;28;27328;-60
2020/12/21 01:17:15;;;;;;;12.55;6.88;;;5.60;95.90;;;;;;5085048;28;27431;-60
2020/12/21 01:19:59;;;;;;;10.88;6.55;;;5.60;95.90;;;;;;5084838;28;28008;-59
2020/12/21 01:22:43;;;;;;;9.90;6.03;;;5.60;95.90;;;;;;5080853;28;27540;-60
2020/12/21 01:25:28;;;;;;;10.07;6.07;;;5.60;95.90;;;;;;5084999;28;27465;-60
2020/12/21 01:28:12;;;;;;;12.02;6.20;;;5.50;95.90;;;;;;5084527;28;27439;-60
2020/12/21 01:30:57;;;;;;;10.93;5.93;;;5.50;95.80;;;;;;5085159;28;27449;-61
2020/12/21 01:33:41;;;;;;;7.10;4.72;;;5.50;95.80;;;;;;5084704;28;27434;-60
2020/12/21 01:36:25;;;;;;;9.82;5.18;;;5.40;95.60;;;;;;5084687;28;27469;-49
2020/12/21 01:39:10;;;;;;;9.27;6.07;;;5.40;95.60;;;;;;5084558;28;27496;-61
2020/12/21 01:41:54;;;;;;;10.25;5.53;;;5.30;95.50;;;;;;5083917;28;27480;-60
2020/12/21 01:44:39;;;;;;;8.00;5.03;;;5.30;95.50;;;;;;5084975;28;27508;-61
2020/12/21 01:47:23;;;;;;;8.00;4.95;;;5.20;95.40;;;;;;5083727;28;27415;-61
2020/12/21 01:50:08;;;;;;;6.78;4.63;;;5.20;95.40;;;;;;5084799;28;27362;-61
2020/12/21 01:52:53;;;;;;;7.30;4.78;;;5.10;95.40;;;;;;5081607;28;27340;-60
2020/12/21 01:55:39;;;;;;;8.65;5.03;;;5.10;95.40;;;;;;5035054;28;27559;-60
2020/12/21 01:58:23;;;;;;;6.55;4.45;;;5.10;95.30;;;;;;5049574;28;27341;-59
2020/12/21 02:01:08;;;;;;;7.50;4.53;;;5.00;95.40;;;;;;5064422;28;27388;-60
2020/12/21 02:03:52;;;;;;;7.82;4.20;;;5.00;95.40;;;;;;5049371;28;27424;-60
2020/12/21 02:06:37;;;;;;;8.15;4.82;;;5.00;95.50;;;;;;5064270;28;27415;-59
2020/12/21 02:09:21;;;;;;;5.13;3.85;;;5.00;95.60;;;;;;5064321;28;27407;-61
2020/12/21 02:12:06;;;;;;;5.65;4.28;;;5.00;95.60;;;;;;5064261;28;27358;-61
2020/12/21 02:14:50;;;;;;;6.65;4.05;;;5.00;95.60;;;;;;5063590;28;27391;-61
2020/12/21 02:17:35;;;;;;;6.80;4.32;;;5.00;95.70;;;;;;5064212;28;27411;-61
2020/12/21 02:20:29;;;;;;;6.70;4.30;;;5.00;95.60;;;;;;5064406;28;27468;-61
2020/12/21 02:23:13;;;;;;;6.10;4.00;;;4.90;95.50;;;;;;5048869;28;27475;-61
2020/12/21 02:25:58;;;;;;;6.93;4.35;;;4.90;95.30;;;;;;5064190;28;27926;-61
2020/12/21 02:28:43;;;;;;;6.28;3.90;;;4.80;95.30;;;;;;5048812;28;27420;-60
2020/12/21 02:31:27;;;;;;;7.60;4.25;;;4.80;95.20;;;;;;5064166;28;27401;-60
2020/12/21 02:34:17;;;;;;;5.32;3.70;;;4.70;95.20;;;;;;5063903;28;27541;-60
2020/12/21 02:37:01;;;;;;;7.07;3.80;;;4.70;95.10;;;;;;5064073;28;27325;-59
2020/12/21 02:39:46;;;;;;;5.82;3.97;;;4.60;95.00;;;;;;5063686;28;27323;-60
2020/12/21 02:42:30;;;;;;;5.40;3.67;;;4.60;95.00;;;;;;5063674;28;27396;-61
2020/12/21 02:45:15;;;;;;;5.93;3.70;;;4.50;94.90;;;;;;5063857;28;27322;-60
2020/12/21 02:47:59;;;;;;;4.40;3.17;;;4.50;95.30;;;;;;5063671;28;27398;-59
2020/12/21 02:50:44;;;;;;;5.20;3.33;;;4.50;94.90;;;;;;5063807;28;27467;-61
2020/12/21 02:53:29;;;;;;;6.18;4.65;;;4.40;94.70;;;;;;5057319;28;27512;-61
2020/12/21 02:56:13;;;;;;;5.00;3.08;;;4.30;94.80;;;;;;5087207;28;27477;-61
2020/12/21 02:58:58;;;;;;;6.10;3.83;;;4.30;94.80;;;;;;5083136;28;27966;-61
2020/12/21 03:01:42;;;;;;;3.78;3.15;;;4.30;94.70;;;;;;5087123;28;27533;-62
2020/12/21 03:04:27;;;;;;;6.53;3.38;;;4.20;94.70;;;;;;5087109;28;27432;-61
2020/12/21 03:07:11;;;;;;;5.30;3.38;;;4.20;94.70;;;;;;5087269;28;27404;-60
2020/12/21 03:09:56;;;;;;;7.35;3.35;;;4.10;94.60;;;;;;5087220;28;27465;-61
2020/12/21 03:12:40;;;;;;;4.10;3.17;;;4.10;94.60;;;;;;5087061;28;27522;-60
2020/12/21 03:15:25;;;;;;;5.50;3.58;;;4.00;94.60;;;;;;5086771;28;27459;-59
2020/12/21 03:18:09;;;;;;;6.25;3.60;;;4.00;94.60;;;;;;5086942;28;27416;-61
2020/12/21 03:20:54;;;;;;;4.63;3.25;;;4.00;94.60;;;;;;5086831;28;27397;-61
2020/12/21 03:23:38;;;;;;;5.22;3.53;;;4.00;94.60;;;;;;5086913;28;27370;-60
2020/12/21 03:26:23;;;;;;;4.85;3.35;;;3.90;94.50;;;;;;5083950;28;27365;-61
2020/12/21 03:29:07;;;;;;;4.30;2.95;;;3.90;94.60;;;;;;5086962;28;27324;-61
2020/12/21 03:31:52;;;;;;;5.13;3.50;;;3.90;94.70;;;;;;5087042;28;27355;-61
2020/12/21 03:34:36;;;;;;;5.80;2.92;;;3.80;94.60;;;;;;5082377;28;27478;-61
2020/12/21 03:37:21;;;;;;;4.22;2.90;;;3.80;94.70;;;;;;5086647;28;27343;-61
2020/12/21 03:40:06;;;;;;;3.05;2.75;;;3.80;94.70;;;;;;5086648;28;27304;-61
2020/12/21 03:42:51;;;;;;;8.88;3.67;;;3.80;94.70;;;;;;5086494;28;27332;-61
2020/12/21 03:45:35;;;;;;;7.47;3.65;;;3.70;94.60;;;;;;5086653;28;27427;-60
2020/12/21 03:48:20;;;;;;;4.50;3.15;;;3.70;94.60;;;;;;5085218;28;27341;-61
2020/12/21 03:51:04;;;;;;;4.93;3.42;;;3.70;94.60;;;;;;5086295;28;27440;-59
2020/12/21 03:53:49;;;;;;;4.85;3.65;;;3.60;94.40;;;;;;5073744;28;27669;-60
2020/12/21 03:56:33;;;;;;;6.03;3.45;;;3.60;94.40;;;;;;5066303;28;27416;-61
2020/12/21 03:59:19;;;;;;;4.97;3.72;;;3.60;94.50;;;;;;5065986;28;27451;-60
2020/12/21 04:02:03;;;;;;;6.18;3.80;;;3.50;94.50;;;;;;5066598;28;27407;-62
2020/12/21 04:04:48;;;;;;;5.07;3.90;;;3.50;94.50;;;;;;5065392;28;27423;-61
2020/12/21 04:07:36;;;;;;;4.53;3.88;;;3.50;94.60;;;;;;5065888;28;27483;-61
2020/12/21 04:10:20;;;;;;;5.55;2.97;;;3.50;94.70;;;;;;5065886;28;27361;-61
2020/12/21 04:13:05;;;;;;;5.13;3.80;;;3.50;94.70;;;;;;5065921;28;27380;-61
2020/12/21 04:15:51;;;;;;;5.22;3.97;;;3.50;94.70;;;;;;5064928;28;27602;-61
2020/12/21 04:18:36;;;;;;;4.50;3.78;;;3.40;94.70;;;;;;5062696;28;27370;-61
2020/12/21 04:21:20;;;;;;;9.88;3.88;;;3.40;94.70;;;;;;5065819;28;27452;-60
2020/12/21 04:24:05;;;;;;;8.13;4.22;;;3.40;94.70;;;;;;5065876;28;27326;-61
2020/12/21 04:26:49;;;;;;;6.70;3.58;;;3.40;94.70;;;;;;5065682;28;27376;-60
2020/12/21 04:29:34;;;;;;;5.90;3.72;;;3.40;94.70;;;;;;5065332;28;27420;-60
2020/12/21 04:32:18;;;;;;;6.20;3.55;;;3.40;94.80;;;;;;5065789;28;27423;-61
2020/12/21 04:35:03;;;;;;;6.15;4.30;;;3.40;94.90;;;;;;5061954;28;26898;-59
2020/12/21 04:37:47;;;;;;;6.15;4.35;;;3.30;94.80;;;;;;5065370;28;27416;-61
2020/12/21 04:40:32;;;;;;;4.80;3.70;;;3.30;94.80;;;;;;5062313;28;27516;-61
2020/12/21 04:43:17;;;;;;;5.32;3.90;;;3.30;94.80;;;;;;5063266;28;27477;-61
2020/12/21 04:46:05;;;;;;;4.45;4.05;;;3.30;94.80;;;;;;5050312;28;27416;-61
2020/12/21 04:48:49;;;;;;;6.18;4.72;;;3.30;94.80;;;;;;5065015;28;27349;-61
2020/12/21 04:51:34;;;;;;;4.93;3.83;;;3.30;94.80;;;;;;5049981;28;27425;-61
2020/12/21 04:54:19;;;;;;;5.07;3.80;;;3.30;94.90;;;;;;5064338;28;27480;-61
2020/12/21 04:57:04;;;;;;;6.70;4.38;;;3.30;95.00;;;;;;5065228;28;27401;-61
2020/12/21 04:59:49;;;;;;;5.45;3.95;;;3.20;95.00;;;;;;5064884;28;27408;-61
2020/12/21 05:02:33;;;;;;;6.35;5.10;;;3.30;95.20;;;;;;5065256;28;27424;-61
2020/12/21 05:05:40;;;;;;;6.60;4.88;;;3.30;95.30;;;;;;5065196;28;27460;-60
2020/12/21 05:08:25;;;;;;;9.15;5.80;;;3.30;95.70;;;;;;5064815;28;27379;-60
2020/12/21 05:11:09;;;;;;;11.10;5.88;;;3.30;95.70;;;;;;5064430;28;27881;-59
2020/12/21 05:14:03;;;;;;;10.52;5.90;;;3.30;95.50;;;;;;5064742;28;27419;-60
2020/12/21 05:16:48;;;;;;;7.80;5.60;;;3.40;95.50;;;;;;5049088;28;27427;-61
2020/12/21 05:19:32;;;;;;;9.95;6.03;;;3.40;95.60;;;;;;5064960;28;27463;-61
2020/12/21 05:22:17;;;;;;;11.70;7.10;;;3.40;95.50;;;;;;5064903;28;27881;-61
2020/12/21 05:25:05;;;;;;;11.98;6.32;;;3.40;95.50;;;;;;5064610;28;27494;-61
2020/12/21 05:27:51;;;;;;;11.98;7.30;;;3.40;95.40;;;;;;5064538;28;27383;-61
2020/12/21 05:30:35;;;;;;;12.73;7.05;;;3.40;95.40;;;;;;5064616;28;27325;-60
2020/12/21 05:33:20;;;;;;;15.63;7.53;;;3.40;95.40;;;;;;5064685;28;27976;-60
2020/12/21 05:36:12;;;;;;;17.23;9.00;;;3.30;95.30;;;;;;5063999;28;27453;-61
2020/12/21 05:39:07;;;;;;;14.73;9.30;;;3.30;95.20;;;;;;5063858;28;27409;-59
2020/12/21 05:41:51;;;;;;;20.25;9.95;;;3.30;95.10;;;;;;5064491;28;27392;-59
2020/12/21 05:44:35;;;;;;;19.33;11.43;;;3.30;95.10;;;;;;5035574;28;28009;-60
2020/12/21 05:47:20;;;;;;;20.70;12.02;;;3.30;95.10;;;;;;5064533;28;27424;-60
2020/12/21 05:50:06;;;;;;;20.10;11.48;;;3.20;95.00;;;;;;5046099;28;27444;-61
2020/12/21 05:52:54;;;;;;;18.52;11.82;;;3.20;95.10;;;;;;5064233;28;27405;-60
2020/12/21 05:55:38;;;;;;;19.40;11.20;;;3.20;95.00;;;;;;5049091;28;27478;-61
2020/12/21 05:58:22;;;;;;;18.58;12.07;;;3.20;95.10;;;;;;5064383;28;27467;-61
2020/12/21 06:01:09;;;;;;;18.33;10.20;;;3.20;95.10;;;;;;5064081;28;27403;-61
2020/12/21 06:03:58;;;;;;;17.88;11.02;;;3.10;95.20;;;;;;5061049;28;27495;-61
2020/12/21 06:06:43;;;;;;;18.58;10.52;;;3.20;95.30;;;;;;5049584;28;27853;-61
2020/12/21 06:09:27;;;;;;;21.83;11.35;;;3.20;95.40;;;;;;5035123;28;27345;-61
2020/12/21 06:12:12;;;;;;;21.38;11.48;;;3.20;95.30;;;;;;5031826;28;27381;-61
2020/12/21 06:15:09;;;;;;;16.95;9.85;;;3.20;95.40;;;;;;5035079;28;27348;-60
2020/12/21 06:17:53;;;;;;;19.60;10.10;;;3.20;95.40;;;;;;5063872;28;27873;-60
2020/12/21 06:20:44;;;;;;;15.27;9.55;;;3.20;95.40;;;;;;5063925;28;27325;-60
2020/12/21 06:23:30;;;;;;;17.67;10.07;;;3.20;95.50;;;;;;5063889;28;27440;-60
2020/12/21 06:26:15;;;;;;;17.33;10.05;;;3.30;95.60;;;;;;5064488;28;27404;-60
2020/12/21 06:29:10;;;;;;;17.52;9.50;;;3.30;95.70;;;;;;5067476;28;27521;-61
2020/12/21 06:32:01;;;;;;;14.30;9.68;;;3.30;95.60;;;;;;5067398;28;27485;-61
2020/12/21 06:34:45;;;;;;;16.42;8.98;;;3.30;95.60;;;;;;5067001;28;27405;-61
2020/12/21 06:37:29;;;;;;;18.90;9.98;;;3.30;95.70;;;;;;5067398;28;27502;-48
2020/12/21 06:40:15;;;;;;;16.15;9.40;;;3.30;95.60;;;;;;5067325;28;27842;-61
2020/12/21 06:43:14;;;;;;;17.30;9.30;;;3.40;95.70;;;;;;5067054;28;27490;-61
2020/12/21 06:45:58;;;;;;;15.70;9.43;;;3.40;95.70;;;;;;5067463;28;27411;-61
2020/12/21 06:48:42;;;;;;;16.25;8.77;;;3.40;95.70;;;;;;5067393;28;27397;-61
2020/12/21 06:51:27;;;;;;;13.57;8.35;;;3.40;95.60;;;;;;5067244;28;27416;-60
2020/12/21 06:54:13;;;;;;;17.63;9.00;;;3.30;95.60;;;;;;5066395;28;27578;-60
2020/12/21 06:56:58;;;;;;;12.95;8.35;;;3.30;95.60;;;;;;5066992;28;27402;-60
2020/12/21 06:59:42;;;;;;;12.15;8.48;;;3.30;95.60;;;;;;5066932;28;27479;-60
2020/12/21 07:02:27;;;;;;;11.75;7.82;;;3.30;95.50;;;;;;5066490;28;27864;-61
2020/12/21 07:05:11;;;;;;;15.52;8.15;;;3.30;95.50;;;;;;5035070;28;27440;-61
2020/12/21 07:07:57;;;;;;;15.27;8.80;;;3.30;95.60;;;;;;5067321;28;27409;-61
2020/12/21 07:10:42;;;;;;;16.10;8.80;;;3.40;95.60;;;;;;5063505;28;27400;-61
2020/12/21 07:13:27;;;;;;;15.10;9.05;;;3.40;95.60;;;;;;5037806;28;27853;-61
2020/12/21 07:16:11;;;;;;;13.95;8.45;;;3.40;95.50;;;;;;5066645;28;27539;-61
2020/12/21 07:18:56;;;;;;;12.75;7.63;;;3.40;95.60;;;;;;5052016;28;27447;-61
2020/12/21 07:21:41;;;;;;;15.27;8.23;;;3.50;95.50;;;;;;5066516;28;27456;-49
2020/12/21 07:24:25;;;;;;;13.82;8.25;;;3.50;95.50;;;;;;5066658;28;27483;-61
2020/12/21 07:27:10;;;;;;;13.63;8.50;;;3.50;95.50;;;;;;5066010;28;27434;-60
2020/12/21 07:29:54;;;;;;;15.13;8.65;;;3.50;95.50;;;;;;5066713;28;27372;-60
2020/12/21 07:32:39;;;;;;;12.02;8.68;;;3.50;95.50;;;;;;5066609;28;27391;-61
2020/12/21 07:35:23;;;;;;;12.98;8.63;;;3.50;95.40;;;;;;5066589;28;27376;-60
2020/12/21 07:38:11;;;;;;;14.48;8.05;;;3.50;95.40;;;;;;5065432;28;27440;-60
2020/12/21 07:40:56;;;;;;;12.20;8.68;;;3.50;95.40;;;;;;5066289;28;27420;-59
2020/12/21 07:43:43;;;;;;;16.15;9.23;;;3.50;95.40;;;;;;5051436;28;27426;-61
2020/12/21 07:46:35;;;;;;;15.02;9.25;;;3.60;95.40;;;;;;5066283;28;27992;-61
2020/12/21 07:49:19;;;;;;;13.25;9.15;;;3.60;95.30;;;;;;5048268;28;27376;-61
2020/12/21 07:52:05;;;;;;;13.60;8.52;;;3.60;95.30;;;;;;5051095;28;27349;-61
2020/12/21 07:54:50;;;;;;;10.60;8.10;;;3.70;95.30;;;;;;5064678;28;27470;-61
2020/12/21 07:57:35;;;;;;;13.15;8.68;;;3.70;95.60;;;;;;5051403;28;27361;-59
2020/12/21 08:00:19;;;;;;;15.27;9.07;;;3.70;95.20;;;;;;5066398;28;27344;-61
2020/12/21 08:03:04;;;;;;;14.20;8.25;;;3.80;95.20;;;;;;5047858;28;27395;-61
2020/12/21 08:05:48;;;;;;;13.43;8.63;;;3.80;95.00;;;;;;5036946;28;27337;-61
2020/12/21 08:08:33;;;;;;;15.00;8.88;;;3.90;95.00;;;;;;5062801;28;27309;-61
2020/12/21 08:11:18;;;;;;;14.02;9.07;;;3.90;94.90;;;;;;5065981;28;27416;-49
2020/12/21 08:14:03;;;;;;;15.13;8.95;;;4.00;94.90;;;;;;5065777;28;27385;-61
2020/12/21 08:16:48;;;;;;;19.95;8.63;;;4.00;94.80;;;;;;5050982;28;27404;-61
2020/12/21 08:19:32;;;;;;;13.88;9.05;;;4.10;94.80;;;;;;5066082;28;27874;-62
2020/12/21 08:22:27;;;;;;;16.25;9.15;;;4.10;94.80;;;;;;5065578;28;27578;-60
2020/12/21 08:25:12;;;;;;;15.48;9.52;;;4.20;94.70;;;;;;5065930;28;27400;-61
2020/12/21 08:27:58;;;;;;;14.35;8.85;;;4.30;94.70;;;;;;5050799;28;27404;-61
2020/12/21 08:30:43;;;;;;;14.18;9.15;;;4.30;94.60;;;;;;5047220;28;27383;-53
2020/12/21 08:33:28;;;;;;;13.65;8.75;;;4.40;94.60;;;;;;5065516;28;27350;-61
2020/12/21 08:36:17;;;;;;;15.25;9.57;;;4.50;94.50;;;;;;5065088;28;27412;-61
2020/12/21 08:39:24;;;;;;;15.25;8.82;;;4.50;94.40;;;;;;5065230;28;27463;-61
2020/12/21 08:42:09;;;;;;;16.13;9.25;;;4.60;94.30;;;;;;5065270;28;27479;-61
2020/12/21 08:44:53;;;;;;;16.52;8.68;;;4.70;94.20;;;;;;5065244;28;27543;-60
2020/12/21 08:47:39;;;;;;;14.77;8.80;;;4.70;94.20;;;;;;5065634;28;27397;-61
2020/12/21 08:50:23;;;;;;;13.00;8.63;;;4.80;94.20;;;;;;5050100;28;27434;-61
2020/12/21 08:53:08;;;;;;;14.35;9.18;;;4.80;94.00;;;;;;5064742;28;27985;-61
2020/12/21 08:55:52;;;;;;;10.75;7.80;;;4.90;94.00;;;;;;5064895;28;27526;-62
2020/12/21 08:58:37;;;;;;;10.90;7.55;;;5.00;94.00;;;;;;5047006;28;27462;-61
2020/12/21 09:01:22;;;;;;;14.18;8.55;;;5.10;94.00;;;;;;5065181;28;27328;-61
2020/12/21 09:04:07;;;;;;;12.02;7.95;;;5.10;93.80;;;;;;5065312;28;27865;-62
2020/12/21 09:06:51;;;;;;;13.25;7.57;;;5.20;93.80;;;;;;5065071;28;27467;-62
2020/12/21 09:09:36;;;;;;;12.93;7.70;;;5.30;93.70;;;;;;5065242;28;27416;-61
2020/12/21 09:12:21;;;;;;;12.05;7.32;;;5.30;93.60;;;;;;5065105;28;27585;-61
2020/12/21 09:15:05;;;;;;;12.75;8.18;;;5.40;93.60;;;;;;5064388;28;27435;-62
2020/12/21 09:17:50;;;;;;;13.38;8.60;;;5.50;93.50;;;;;;5065088;28;27399;-60
2020/12/21 09:20:34;;;;;;;11.73;8.13;;;5.50;93.40;;;;;;5064863;28;27423;-62
2020/12/21 09:23:19;;;;;;;13.75;8.80;;;5.60;93.30;;;;;;5064724;28;27408;-60
2020/12/21 09:26:04;;;;;;;10.88;8.18;;;5.70;93.20;;;;;;5064808;28;27329;-61
2020/12/21 09:28:49;;;;;;;13.27;9.13;;;5.80;93.00;;;;;;5064862;28;27429;-60
2020/12/21 09:31:34;;;;;;;12.80;7.90;;;5.90;93.00;;;;;;5064860;28;27396;-62
2020/12/21 09:34:18;;;;;;;12.20;7.55;;;5.90;92.80;;;;;;5064508;28;27351;-60
2020/12/21 09:37:03;;;;;;;13.18;8.10;;;6.00;92.70;;;;;;5064852;28;27372;-61
2020/12/21 09:39:48;;;;;;;15.23;8.55;;;6.10;92.70;;;;;;5064876;28;27360;-62
2020/12/21 09:42:32;;;;;;;13.73;9.50;;;6.20;92.60;;;;;;5064455;28;27415;-62
2020/12/21 09:45:17;;;;;;;14.40;8.88;;;6.30;92.50;;;;;;5064837;28;27364;-49
2020/12/21 09:48:02;;;;;;;13.52;9.48;;;6.40;92.70;;;;;;5064600;28;27383;-61
2020/12/21 09:50:47;;;;;;;11.63;8.57;;;6.50;92.70;;;;;;5064402;28;27396;-61
2020/12/21 09:53:31;;;;;;;16.13;10.07;;;6.60;92.60;;;;;;5063521;28;27327;-62
2020/12/21 09:56:16;;;;;;;14.48;10.20;;;6.70;92.60;;;;;;5064021;28;27337;-61
2020/12/21 09:59:00;;;;;;;16.25;10.18;;;6.80;92.70;;;;;;5064401;28;27308;-61
2020/12/21 10:01:44;;;;;;;13.48;10.10;;;6.80;92.60;;;;;;5063799;28;27401;-61
2020/12/21 10:04:29;;;;;;;17.00;11.20;;;6.90;92.60;;;;;;5064224;28;27500;-61
2020/12/21 10:07:13;;;;;;;14.63;10.98;;;6.90;92.70;;;;;;5064312;28;27412;-61
2020/12/21 10:09:58;;;;;;;19.00;12.27;;;7.00;92.70;;;;;;5063823;28;27400;-60
2020/12/21 10:12:43;;;;;;;19.45;12.50;;;7.00;92.80;;;;;;5064326;28;27470;-60
2020/12/21 10:15:27;;;;;;;18.10;12.32;;;7.00;92.80;;;;;;5064100;28;27387;-61
2020/12/21 10:18:12;;;;;;;21.15;12.73;;;7.00;92.90;;;;;;5064061;28;27472;-61
2020/12/21 10:20:56;;;;;;;21.65;13.52;;;7.10;92.90;;;;;;5064129;28;27494;-60
2020/12/21 10:23:41;;;;;;;21.00;13.10;;;7.10;93.00;;;;;;5064116;28;27432;-61
2020/12/21 10:26:25;;;;;;;20.05;13.25;;;7.10;92.80;;;;;;5064224;28;27472;-61
2020/12/21 10:29:09;;;;;;;19.60;12.10;;;7.20;93.00;;;;;;5063806;28;27349;-61
2020/12/21 10:31:57;;;;;;;20.48;13.52;;;7.20;93.10;;;;;;5064151;28;27382;-61
2020/12/21 10:34:42;;;;;;;17.50;12.20;;;7.30;92.90;;;;;;5063541;28;27492;-61
2020/12/21 10:37:26;;;;;;;19.38;13.20;;;7.30;92.90;;;;;;5063437;28;27594;-61
2020/12/21 10:40:10;;;;;;;19.15;13.48;;;7.40;93.10;;;;;;5063944;28;27496;-60
2020/12/21 10:42:55;;;;;;;22.83;13.13;;;7.40;93.00;;;;;;5063932;28;27425;-49
2020/12/21 10:45:39;;;;;;;17.70;12.10;;;7.50;92.90;;;;;;5063814;28;27404;-60
2020/12/21 10:48:24;;;;;;;19.02;13.35;;;7.50;92.90;;;;;;5063573;28;27354;-60
2020/12/21 10:51:08;;;;;;;19.15;13.65;;;7.50;92.90;;;;;;5063567;28;27395;-60
2020/12/21 10:53:53;;;;;;;20.98;13.98;;;7.60;92.90;;;;;;5063080;28;27355;-61
2020/12/21 10:56:37;;;;;;;20.73;13.70;;;7.60;93.00;;;;;;5048199;28;27360;-61
2020/12/21 10:59:22;;;;;;;22.67;14.90;;;7.60;93.00;;;;;;5060731;28;27310;-61
2020/12/21 11:02:06;;;;;;;19.35;14.23;;;7.70;92.90;;;;;;5063324;28;27369;-61
2020/12/21 11:04:51;;;;;;;20.05;13.95;;;7.80;93.00;;;;;;5063758;28;27983;-61
2020/12/21 11:07:36;;;;;;;26.00;17.20;;;7.80;93.00;;;;;;5060292;28;27349;-61
2020/12/21 11:10:21;;;;;;;22.35;15.63;;;7.90;93.00;;;;;;5063408;28;27423;-61
2020/12/21 11:13:05;;;;;;;24.33;16.30;;;8.00;93.00;;;;;;5063279;28;27415;-61
2020/12/21 11:15:49;;;;;;;25.38;16.85;;;8.00;93.10;;;;;;5066688;28;27549;-62
2020/12/21 11:18:34;;;;;;;25.35;17.20;;;8.10;93.00;;;;;;5066565;28;27420;-61
2020/12/21 11:21:18;;;;;;;25.42;17.83;;;8.10;93.00;;;;;;5066525;28;27476;-61
2020/12/21 11:24:03;;;;;;;24.48;17.30;;;8.20;93.00;;;;;;5066467;28;27400;-61
2020/12/21 11:26:52;;;;;;;26.27;16.83;;;8.20;93.00;;;;;;5066735;28;27881;-61
2020/12/21 11:29:36;;;;;;;22.63;15.43;;;8.30;93.00;;;;;;5066476;28;27412;-60
2020/12/21 11:32:22;;;;;;;25.08;16.73;;;8.30;92.90;;;;;;5066513;28;27370;-60
2020/12/21 11:35:07;;;;;;;26.02;16.95;;;8.30;92.80;;;;;;5065356;28;27368;-59
2020/12/21 11:37:52;;;;;;;26.20;16.85;;;8.30;92.80;;;;;;5066335;28;27336;-61
2020/12/21 11:40:37;;;;;;;25.63;17.00;;;8.30;93.00;;;;;;5066422;28;27365;-61
2020/12/21 11:43:22;;;;;;;23.13;15.85;;;8.30;93.20;;;;;;5066575;28;27373;-62
2020/12/21 11:46:06;;;;;;;23.00;16.80;;;8.40;93.00;;;;;;5066287;28;27383;-61
2020/12/21 11:48:50;;;;;;;28.25;17.98;;;8.40;93.10;;;;;;5051581;28;27338;-61
2020/12/21 11:51:35;;;;;;;24.08;16.70;;;8.40;93.00;;;;;;5066083;28;27425;-62
2020/12/21 11:54:19;;;;;;;23.23;16.02;;;8.40;92.90;;;;;;5065543;28;27651;-61
2020/12/21 11:57:04;;;;;;;21.83;15.88;;;8.40;93.10;;;;;;5066489;28;27447;-61
2020/12/21 11:59:48;;;;;;;21.98;15.05;;;8.40;93.10;;;;;;5066225;28;27881;-61
2020/12/21 12:02:33;;;;;;;24.08;15.10;;;8.50;93.20;;;;;;5062670;28;27480;-61
2020/12/21 12:05:18;;;;;;;20.98;15.00;;;8.60;93.10;;;;;;5066223;28;27448;-61
2020/12/21 12:08:02;;;;;;;19.17;13.70;;;8.70;92.80;;;;;;5066134;28;27471;-60
2020/12/21 12:10:46;;;;;;;20.85;14.27;;;8.80;92.70;;;;;;5065857;28;27526;-60
2020/12/21 12:13:31;;;;;;;16.50;11.88;;;8.80;92.40;;;;;;5065914;28;27424;-61
2020/12/21 12:16:20;;;;;;;20.95;12.82;;;8.90;92.30;;;;;;5065659;28;27474;-50
2020/12/21 12:19:05;;;;;;;18.17;13.07;;;9.00;92.30;;;;;;5065919;28;26908;-61
2020/12/21 12:21:50;;;;;;;15.45;11.82;;;9.10;92.20;;;;;;5065828;28;27869;-62
2020/12/21 12:24:36;;;;;;;18.10;12.10;;;9.10;92.10;;;;;;5065260;28;27555;-59
2020/12/21 12:27:20;;;;;;;15.40;11.80;;;9.20;91.90;;;;;;5065709;28;27337;-62
2020/12/21 12:30:05;;;;;;;15.35;11.00;;;9.40;91.70;;;;;;5049907;28;27591;-62
2020/12/21 12:32:49;;;;;;;14.10;9.77;;;9.50;91.60;;;;;;5065737;28;27842;-62
2020/12/21 12:35:34;;;;;;;14.85;10.20;;;9.50;91.40;;;;;;5065140;28;27483;-62
2020/12/21 12:38:18;;;;;;;12.70;9.82;;;9.60;91.40;;;;;;5065741;28;27495;-62
2020/12/21 12:41:03;;;;;;;13.52;9.10;;;9.60;91.50;;;;;;5047140;28;27418;-62
2020/12/21 12:43:47;;;;;;;13.60;9.40;;;9.70;91.50;;;;;;5065600;28;27450;-60
2020/12/21 12:46:32;;;;;;;14.13;9.45;;;9.70;91.80;;;;;;5047034;28;27447;-62
2020/12/21 12:49:16;;;;;;;15.40;9.82;;;9.60;92.00;;;;;;5065552;28;27463;-62
2020/12/21 12:52:01;;;;;;;12.60;9.00;;;9.50;92.10;;;;;;5065550;28;27476;-62
2020/12/21 12:54:45;;;;;;;10.75;8.52;;;9.50;92.20;;;;;;5064215;28;27437;-61
2020/12/21 12:57:30;;;;;;;12.85;8.57;;;9.40;92.30;;;;;;5062012;28;27369;-50
2020/12/21 13:00:14;;;;;;;10.73;8.98;;;9.50;92.40;;;;;;5065170;28;27318;-62
2020/12/21 13:02:59;;;;;;;9.82;7.47;;;9.50;92.50;;;;;;5065177;28;27315;-60
2020/12/21 13:05:44;;;;;;;10.23;7.93;;;9.50;92.50;;;;;;5065031;28;27363;-62
2020/12/21 13:08:29;;;;;;;10.40;6.82;;;9.50;92.60;;;;;;5046666;28;27415;-62
2020/12/21 13:11:14;;;;;;;10.20;7.32;;;9.50;92.60;;;;;;5065154;28;27380;-62
2020/12/21 13:13:59;;;;;;;9.18;7.07;;;9.50;92.60;;;;;;5065236;28;27365;-62
2020/12/21 13:16:43;;;;;;;10.90;7.43;;;9.50;92.60;;;;;;5064720;28;27338;-61
2020/12/21 13:19:28;;;;;;;10.35;7.22;;;9.40;92.70;;;;;;5064951;28;27346;-62
2020/12/21 13:22:12;;;;;;;10.00;7.35;;;9.40;92.80;;;;;;5064983;28;27404;-61
2020/12/21 13:24:57;;;;;;;11.40;7.72;;;9.40;92.90;;;;;;5064153;28;27433;-62
2020/12/21 13:27:41;;;;;;;11.27;7.80;;;9.30;93.00;;;;;;5064555;28;27441;-61
2020/12/21 13:30:26;;;;;;;10.38;7.18;;;9.30;93.00;;;;;;5064880;28;27302;-61
2020/12/21 13:33:10;;;;;;;8.20;6.88;;;9.30;93.10;;;;;;5064733;28;27385;-61
2020/12/21 13:35:55;;;;;;;10.70;7.82;;;9.30;93.10;;;;;;5063961;28;27357;-61
2020/12/21 13:38:40;;;;;;;10.07;6.78;;;9.30;93.10;;;;;;5064676;28;27593;-61
2020/12/21 13:41:24;;;;;;;11.07;8.07;;;9.30;93.10;;;;;;5064619;28;27425;-62
2020/12/21 13:44:09;;;;;;;10.20;7.45;;;9.30;93.10;;;;;;5064823;28;26927;-60
2020/12/21 13:46:54;;;;;;;9.57;7.40;;;9.20;93.10;;;;;;5064699;28;27447;-61
2020/12/21 13:49:39;;;;;;;10.77;7.50;;;9.20;93.10;;;;;;5064548;28;27485;-60
2020/12/21 13:52:23;;;;;;;11.90;8.25;;;9.20;93.10;;;;;;5064277;28;27452;-62
2020/12/21 13:55:08;;;;;;;9.30;7.82;;;9.20;93.10;;;;;;5064252;28;27411;-62
2020/12/21 13:57:54;;;;;;;10.05;7.13;;;9.10;93.10;;;;;;5063647;28;27621;-62
2020/12/21 14:00:39;;;;;;;10.93;7.95;;;9.10;93.10;;;;;;5064388;28;27464;-62
2020/12/21 14:03:26;;;;;;;10.07;7.32;;;9.10;93.10;;;;;;5064157;28;27413;-61
2020/12/21 14:06:12;;;;;;;11.82;7.70;;;9.00;93.00;;;;;;5064082;28;27354;-61
2020/12/21 14:08:57;;;;;;;11.38;7.53;;;9.00;93.00;;;;;;5061099;28;27395;-62
2020/12/21 14:11:42;;;;;;;9.45;7.72;;;9.00;92.80;;;;;;5063958;28;27402;-62
2020/12/21 14:14:26;;;;;;;10.32;7.65;;;8.90;92.70;;;;;;5063982;28;27380;-61
2020/12/21 14:17:11;;;;;;;10.45;7.70;;;8.90;92.70;;;;;;5063475;28;27352;-61
2020/12/21 14:19:55;;;;;;;13.43;7.90;;;8.90;92.70;;;;;;5063967;28;27390;-62